createdAt,value
2018-12-04T00:00:36.711Z,1001.66
2018-12-04T00:01:36.898Z,1001.81
2018-12-04T00:02:36.692Z,1001.89
2018-12-04T00:03:36.701Z,1001.96
2018-12-04T00:04:36.701Z,1001.96
2018-12-04T00:05:36.696Z,1002.09
2018-12-04T00:06:36.694Z,1002.08
2018-12-04T00:07:36.691Z,1002.10
2018-12-04T00:08:36.674Z,1002.14
2018-12-04T00:09:36.670Z,1002.24
2018-12-04T00:10:36.667Z,1002.19
2018-12-04T00:11:36.675Z,1002.27
2018-12-04T00:12:36.663Z,1002.33
2018-12-04T00:13:36.668Z,1002.40
2018-12-04T00:14:36.672Z,1002.43
2018-12-04T00:15:36.654Z,1002.50
2018-12-04T00:16:36.663Z,1002.62
2018-12-04T00:17:36.646Z,1002.67
2018-12-04T00:18:36.845Z,1002.70
2018-12-04T00:19:36.855Z,1002.73
2018-12-04T00:20:36.854Z,1002.73
2018-12-04T00:21:36.647Z,1002.76
2018-12-04T00:22:36.831Z,1002.75
2018-12-04T00:23:36.635Z,1002.79
2018-12-04T00:24:36.834Z,1002.80
2018-12-04T00:25:36.616Z,1002.79
2018-12-04T00:26:36.817Z,1002.87
2018-12-04T00:27:36.624Z,1002.96
2018-12-04T00:28:36.625Z,1003.00
2018-12-04T00:29:36.605Z,1002.98
2018-12-04T00:30:36.814Z,1003.03
2018-12-04T00:31:36.812Z,1003.08
2018-12-04T00:33:02.281Z,1003.13
2018-12-04T00:33:36.594Z,1003.19
2018-12-04T00:34:36.594Z,1003.16
2018-12-04T00:35:36.591Z,1003.21
2018-12-04T00:36:36.589Z,1003.23
2018-12-04T00:37:36.573Z,1003.25
2018-12-04T00:38:36.787Z,1003.28
2018-12-04T00:39:36.593Z,1003.27
2018-12-04T00:40:36.565Z,1003.31
2018-12-04T00:41:36.573Z,1003.33
2018-12-04T00:42:36.580Z,1003.35
2018-12-04T00:43:36.557Z,1003.37
2018-12-04T00:44:36.558Z,1003.37
2018-12-04T00:45:36.545Z,1003.41
2018-12-04T00:46:36.542Z,1003.48
2018-12-04T00:47:36.541Z,1003.52
2018-12-04T00:48:36.536Z,1003.52
2018-12-04T00:49:36.544Z,1003.55
2018-12-04T00:50:36.528Z,1003.62
2018-12-04T00:51:36.523Z,1003.64
2018-12-04T00:52:36.537Z,1003.63
2018-12-04T00:53:36.518Z,1003.69
2018-12-04T00:54:36.530Z,1003.74
2018-12-04T00:55:36.508Z,1003.80
2018-12-04T00:56:36.507Z,1003.76
2018-12-04T00:57:36.502Z,1003.73
2018-12-04T00:58:36.500Z,1003.79
2018-12-04T00:59:36.496Z,1003.82
2018-12-04T01:00:36.514Z,1003.90
2018-12-04T01:01:36.499Z,1003.95
2018-12-04T01:02:36.486Z,1003.97
2018-12-04T01:03:36.501Z,1004.04
2018-12-04T01:04:36.492Z,1004.05
2018-12-04T01:05:36.475Z,1004.08
2018-12-04T01:06:36.489Z,1004.14
2018-12-04T01:07:36.468Z,1004.18
2018-12-04T01:08:36.468Z,1004.21
2018-12-04T01:09:36.469Z,1004.28
2018-12-04T01:10:36.456Z,1004.30
2018-12-04T01:11:36.654Z,1004.38
2018-12-04T01:12:36.460Z,1004.39
2018-12-04T01:13:36.460Z,1004.38
2018-12-04T01:14:36.445Z,1004.32
2018-12-04T01:15:36.450Z,1004.33
2018-12-04T01:16:36.435Z,1004.35
2018-12-04T01:17:36.448Z,1004.43
2018-12-04T01:18:36.449Z,1004.43
2018-12-04T01:19:36.475Z,1004.45
2018-12-04T01:20:36.439Z,1004.51
2018-12-04T01:21:36.432Z,1004.51
2018-12-04T01:22:36.617Z,1004.50
2018-12-04T01:23:36.426Z,1004.49
2018-12-04T01:24:36.420Z,1004.51
2018-12-04T01:25:36.614Z,1004.53
2018-12-04T01:26:36.631Z,1004.57
2018-12-04T01:27:36.409Z,1004.58
2018-12-04T01:28:36.597Z,1004.60
2018-12-04T01:29:36.404Z,1004.61
2018-12-04T01:30:36.410Z,1004.65
2018-12-04T01:31:36.396Z,1004.69
2018-12-04T01:32:36.395Z,1004.75
2018-12-04T01:33:36.581Z,1004.74
2018-12-04T01:34:36.394Z,1004.75
2018-12-04T01:35:36.585Z,1004.80
2018-12-04T01:36:36.566Z,1004.79
2018-12-04T01:37:36.577Z,1004.82
2018-12-04T01:38:36.575Z,1004.83
2018-12-04T01:39:36.367Z,1004.85
2018-12-04T01:40:36.566Z,1004.90
2018-12-04T01:41:36.360Z,1004.98
2018-12-04T01:42:36.346Z,1004.96
2018-12-04T01:43:36.546Z,1004.99
2018-12-04T01:44:36.542Z,1005.00
2018-12-04T01:45:36.335Z,1005.00
2018-12-04T01:46:36.351Z,1005.01
2018-12-04T01:47:36.330Z,1005.04
2018-12-04T01:48:36.353Z,1005.04
2018-12-04T01:49:36.335Z,1005.08
2018-12-04T01:50:36.334Z,1005.11
2018-12-04T01:51:36.328Z,1005.16
2018-12-04T01:52:36.525Z,1005.18
2018-12-04T01:53:36.311Z,1005.25
2018-12-04T01:54:36.307Z,1005.25
2018-12-04T01:55:36.333Z,1005.26
2018-12-04T01:56:36.304Z,1005.29
2018-12-04T01:57:36.313Z,1005.29
2018-12-04T01:58:36.310Z,1005.37
2018-12-04T01:59:36.307Z,1005.41
2018-12-04T02:00:36.292Z,1005.44
2018-12-04T02:01:36.517Z,1005.46
2018-12-04T02:02:36.299Z,1005.46
2018-12-04T02:03:36.336Z,1005.49
2018-12-04T02:04:36.277Z,1005.48
2018-12-04T02:05:36.485Z,1005.47
2018-12-04T02:06:36.272Z,1005.49
2018-12-04T02:07:36.269Z,1005.50
2018-12-04T02:08:36.277Z,1005.51
2018-12-04T02:09:36.261Z,1005.49
2018-12-04T02:10:36.260Z,1005.48
2018-12-04T02:11:36.270Z,1005.53
2018-12-04T02:12:36.268Z,1005.52
2018-12-04T02:13:36.248Z,1005.55
2018-12-04T02:14:36.245Z,1005.57
2018-12-04T02:15:36.246Z,1005.57
2018-12-04T02:16:36.241Z,1005.62
2018-12-04T02:17:36.240Z,1005.63
2018-12-04T02:18:36.439Z,1005.64
2018-12-04T02:19:36.229Z,1005.61
2018-12-04T02:20:36.225Z,1005.64
2018-12-04T02:21:36.233Z,1005.66
2018-12-04T02:22:36.239Z,1005.71
2018-12-04T02:23:36.231Z,1005.76
2018-12-04T02:24:36.216Z,1005.81
2018-12-04T02:25:36.223Z,1005.82
2018-12-04T02:26:36.220Z,1005.92
2018-12-04T02:27:36.204Z,1005.92
2018-12-04T02:28:36.203Z,1005.95
2018-12-04T02:29:36.195Z,1005.94
2018-12-04T02:30:36.193Z,1005.97
2018-12-04T02:31:36.193Z,1006.00
2018-12-04T02:32:36.192Z,1006.03
2018-12-04T02:33:36.188Z,1006.08
2018-12-04T02:34:36.193Z,1006.12
2018-12-04T02:35:36.191Z,1006.16
2018-12-04T02:36:36.179Z,1006.11
2018-12-04T02:37:36.184Z,1006.18
2018-12-04T02:38:36.171Z,1006.23
2018-12-04T02:39:36.182Z,1006.20
2018-12-04T02:40:36.176Z,1006.21
2018-12-04T02:41:36.161Z,1006.23
2018-12-04T02:42:36.154Z,1006.26
2018-12-04T02:43:36.154Z,1006.23
2018-12-04T02:44:36.149Z,1006.25
2018-12-04T02:45:36.164Z,1006.21
2018-12-04T02:46:36.159Z,1006.23
2018-12-04T02:47:36.140Z,1006.26
2018-12-04T02:48:36.343Z,1006.24
2018-12-04T02:49:36.136Z,1006.22
2018-12-04T02:50:36.143Z,1006.25
2018-12-04T02:51:36.138Z,1006.20
2018-12-04T02:52:36.342Z,1006.23
2018-12-04T02:53:36.135Z,1006.24
2018-12-04T02:54:36.325Z,1006.29
2018-12-04T02:55:36.114Z,1006.32
2018-12-04T02:56:36.121Z,1006.34
2018-12-04T02:57:36.315Z,1006.37
2018-12-04T02:58:36.133Z,1006.39
2018-12-04T02:59:36.111Z,1006.42
2018-12-04T03:00:36.114Z,1006.40
2018-12-04T03:01:36.124Z,1006.45
2018-12-04T03:02:36.089Z,1006.49
2018-12-04T03:03:36.098Z,1006.49
2018-12-04T03:04:36.089Z,1006.51
2018-12-04T03:05:36.094Z,1006.51
2018-12-04T03:06:36.281Z,1006.55
2018-12-04T03:07:36.091Z,1006.62
2018-12-04T03:08:36.082Z,1006.60
2018-12-04T03:09:36.071Z,1006.65
2018-12-04T03:10:36.278Z,1006.69
2018-12-04T03:11:36.074Z,1006.68
2018-12-04T03:12:36.267Z,1006.72
2018-12-04T03:13:36.112Z,1006.69
2018-12-04T03:14:36.054Z,1006.73
2018-12-04T03:15:36.251Z,1006.77
2018-12-04T03:16:36.256Z,1006.75
2018-12-04T03:17:36.046Z,1006.73
2018-12-04T03:18:36.045Z,1006.80
2018-12-04T03:19:36.039Z,1006.78
2018-12-04T03:20:36.036Z,1006.84
2018-12-04T03:21:36.030Z,1006.84
2018-12-04T03:22:36.029Z,1006.87
2018-12-04T03:23:36.023Z,1006.87
2018-12-04T03:24:36.026Z,1006.89
2018-12-04T03:25:36.015Z,1006.93
2018-12-04T03:26:36.225Z,1006.96
2018-12-04T03:27:36.012Z,1006.96
2018-12-04T03:28:36.016Z,1007.00
2018-12-04T03:29:36.003Z,1007.02
2018-12-04T03:30:36.223Z,1007.04
2018-12-04T03:31:36.000Z,1007.03
2018-12-04T03:32:35.996Z,1007.04
2018-12-04T03:33:35.996Z,1007.04
2018-12-04T03:34:35.993Z,1007.06
2018-12-04T03:35:35.998Z,1007.09
2018-12-04T03:36:35.983Z,1007.07
2018-12-04T03:37:35.977Z,1007.09
2018-12-04T03:38:35.981Z,1007.08
2018-12-04T03:39:35.973Z,1007.12
2018-12-04T03:40:35.970Z,1007.13
2018-12-04T03:41:36.023Z,1007.15
2018-12-04T03:42:36.165Z,1007.16
2018-12-04T03:43:35.963Z,1007.20
2018-12-04T03:44:35.958Z,1007.20
2018-12-04T03:45:36.154Z,1007.19
2018-12-04T03:46:35.953Z,1007.23
2018-12-04T03:47:36.158Z,1007.24
2018-12-04T03:48:35.950Z,1007.31
2018-12-04T03:49:35.944Z,1007.30
2018-12-04T03:50:36.141Z,1007.34
2018-12-04T03:51:35.934Z,1007.35
2018-12-04T03:52:35.944Z,1007.38
2018-12-04T03:53:35.940Z,1007.38
2018-12-04T03:54:36.131Z,1007.37
2018-12-04T03:55:35.935Z,1007.42
2018-12-04T03:56:35.929Z,1007.44
2018-12-04T03:57:35.919Z,1007.40
2018-12-04T03:58:35.954Z,1007.46
2018-12-04T03:59:35.908Z,1007.43
2018-12-04T04:00:35.907Z,1007.46
2018-12-04T04:01:36.119Z,1007.49
2018-12-04T04:02:35.941Z,1007.46
2018-12-04T04:03:35.914Z,1007.50
2018-12-04T04:04:36.105Z,1007.49
2018-12-04T04:05:35.900Z,1007.55
2018-12-04T04:06:35.890Z,1007.55
2018-12-04T04:07:35.890Z,1007.55
2018-12-04T04:08:35.897Z,1007.59
2018-12-04T04:09:35.878Z,1007.61
2018-12-04T04:10:35.880Z,1007.58
2018-12-04T04:11:35.872Z,1007.54
2018-12-04T04:12:35.881Z,1007.61
2018-12-04T04:13:35.879Z,1007.58
2018-12-04T04:14:35.866Z,1007.60
2018-12-04T04:15:35.887Z,1007.62
2018-12-04T04:16:35.868Z,1007.66
2018-12-04T04:17:35.887Z,1007.69
2018-12-04T04:18:35.857Z,1007.67
2018-12-04T04:19:35.875Z,1007.69
2018-12-04T04:20:35.860Z,1007.74
2018-12-04T04:21:35.839Z,1007.76
2018-12-04T04:22:35.835Z,1007.80
2018-12-04T04:23:35.835Z,1007.83
2018-12-04T04:24:35.833Z,1007.88
2018-12-04T04:25:36.033Z,1007.90
2018-12-04T04:26:35.826Z,1007.92
2018-12-04T04:27:35.844Z,1007.93
2018-12-04T04:28:35.819Z,1007.94
2018-12-04T04:29:35.825Z,1007.94
2018-12-04T04:30:35.826Z,1007.94
2018-12-04T04:31:35.844Z,1007.93
2018-12-04T04:32:35.823Z,1007.99
2018-12-04T04:33:35.804Z,1008.01
2018-12-04T04:34:35.802Z,1008.09
2018-12-04T04:35:35.812Z,1008.11
2018-12-04T04:36:35.822Z,1008.14
2018-12-04T04:37:35.801Z,1008.13
2018-12-04T04:38:35.804Z,1008.18
2018-12-04T04:39:35.802Z,1008.18
2018-12-04T04:40:35.792Z,1008.23
2018-12-04T04:41:35.777Z,1008.33
2018-12-04T04:42:35.778Z,1008.36
2018-12-04T04:43:35.775Z,1008.40
2018-12-04T04:44:35.773Z,1008.44
2018-12-04T04:45:35.765Z,1008.43
2018-12-04T04:46:35.762Z,1008.49
2018-12-04T04:47:35.769Z,1008.50
2018-12-04T04:48:35.758Z,1008.52
2018-12-04T04:49:35.765Z,1008.51
2018-12-04T04:50:35.763Z,1008.51
2018-12-04T04:51:35.761Z,1008.59
2018-12-04T04:52:35.748Z,1008.56
2018-12-04T04:53:35.751Z,1008.53
2018-12-04T04:54:35.749Z,1008.52
2018-12-04T04:55:35.938Z,1008.51
2018-12-04T04:56:35.747Z,1008.51
2018-12-04T04:57:35.730Z,1008.51
2018-12-04T04:58:35.930Z,1008.54
2018-12-04T04:59:35.735Z,1008.52
2018-12-04T05:00:35.747Z,1008.52
2018-12-04T05:01:35.731Z,1008.52
2018-12-04T05:02:35.736Z,1008.53
2018-12-04T05:03:35.724Z,1008.53
2018-12-04T05:04:35.708Z,1008.53
2018-12-04T05:05:35.705Z,1008.57
2018-12-04T05:06:35.704Z,1008.63
2018-12-04T05:07:35.715Z,1008.67
2018-12-04T05:08:35.712Z,1008.70
2018-12-04T05:09:35.899Z,1008.72
2018-12-04T05:10:35.709Z,1008.78
2018-12-04T05:11:35.687Z,1008.75
2018-12-04T05:12:35.744Z,1008.78
2018-12-04T05:13:35.697Z,1008.82
2018-12-04T05:14:35.709Z,1008.85
2018-12-04T05:15:35.684Z,1008.86
2018-12-04T05:16:35.677Z,1008.89
2018-12-04T05:17:35.674Z,1008.92
2018-12-04T05:18:35.703Z,1008.99
2018-12-04T05:19:35.867Z,1009.00
2018-12-04T05:20:35.659Z,1009.01
2018-12-04T05:21:35.668Z,1009.00
2018-12-04T05:22:35.651Z,1009.01
2018-12-04T05:23:35.670Z,1008.98
2018-12-04T05:24:35.648Z,1009.04
2018-12-04T05:25:35.851Z,1009.05
2018-12-04T05:26:35.638Z,1009.05
2018-12-04T05:27:35.839Z,1009.09
2018-12-04T05:28:35.634Z,1009.07
2018-12-04T05:29:35.631Z,1009.11
2018-12-04T05:30:35.627Z,1009.11
2018-12-04T05:31:35.622Z,1009.16
2018-12-04T05:32:35.624Z,1009.22
2018-12-04T05:33:35.618Z,1009.24
2018-12-04T05:34:35.614Z,1009.23
2018-12-04T05:35:35.609Z,1009.30
2018-12-04T05:36:35.811Z,1009.23
2018-12-04T05:37:35.615Z,1009.23
2018-12-04T05:38:35.600Z,1009.25
2018-12-04T05:39:35.600Z,1009.27
2018-12-04T05:40:35.611Z,1009.29
2018-12-04T05:41:35.794Z,1009.35
2018-12-04T05:42:35.590Z,1009.36
2018-12-04T05:43:35.586Z,1009.40
2018-12-04T05:44:35.587Z,1009.44
2018-12-04T05:45:35.582Z,1009.45
2018-12-04T05:46:35.577Z,1009.42
2018-12-04T05:47:35.587Z,1009.44
2018-12-04T05:48:35.789Z,1009.45
2018-12-04T05:49:35.767Z,1009.48
2018-12-04T05:50:35.581Z,1009.46
2018-12-04T05:51:35.578Z,1009.50
2018-12-04T05:52:35.557Z,1009.53
2018-12-04T05:53:35.554Z,1009.56
2018-12-04T05:54:35.550Z,1009.61
2018-12-04T05:55:35.571Z,1009.62
2018-12-04T05:56:35.555Z,1009.57
2018-12-04T05:57:35.559Z,1009.64
2018-12-04T05:58:35.548Z,1009.61
2018-12-04T05:59:35.535Z,1009.63
2018-12-04T06:00:35.530Z,1009.66
2018-12-04T06:01:35.539Z,1009.68
2018-12-04T06:02:35.740Z,1009.68
2018-12-04T06:03:35.540Z,1009.69
2018-12-04T06:04:35.534Z,1009.73
2018-12-04T06:05:35.720Z,1009.75
2018-12-04T06:06:35.533Z,1009.81
2018-12-04T06:07:35.511Z,1009.82
2018-12-04T06:08:35.519Z,1009.85
2018-12-04T06:09:35.520Z,1009.86
2018-12-04T06:10:35.503Z,1009.92
2018-12-04T06:11:35.509Z,1009.92
2018-12-04T06:12:35.726Z,1009.97
2018-12-04T06:13:35.491Z,1009.98
2018-12-04T06:14:35.516Z,1010.01
2018-12-04T06:15:35.513Z,1010.01
2018-12-04T06:16:35.695Z,1010.08
2018-12-04T06:17:35.743Z,1010.07
2018-12-04T06:18:35.495Z,1010.14
2018-12-04T06:19:35.682Z,1010.15
2018-12-04T06:20:35.484Z,1010.22
2018-12-04T06:21:35.462Z,1010.20
2018-12-04T06:22:35.457Z,1010.24
2018-12-04T06:23:35.459Z,1010.27
2018-12-04T06:24:35.654Z,1010.29
2018-12-04T06:25:35.457Z,1010.32
2018-12-04T06:26:35.445Z,1010.35
2018-12-04T06:27:35.442Z,1010.37
2018-12-04T06:28:35.438Z,1010.42
2018-12-04T06:29:35.435Z,1010.42
2018-12-04T06:30:35.637Z,1010.42
2018-12-04T06:31:35.437Z,1010.43
2018-12-04T06:32:35.626Z,1010.40
2018-12-04T06:33:35.628Z,1010.43
2018-12-04T06:34:35.418Z,1010.46
2018-12-04T06:35:35.414Z,1010.48
2018-12-04T06:36:35.422Z,1010.49
2018-12-04T06:37:35.405Z,1010.54
2018-12-04T06:38:35.401Z,1010.58
2018-12-04T06:39:35.398Z,1010.61
2018-12-04T06:40:35.395Z,1010.61
2018-12-04T06:41:35.393Z,1010.68
2018-12-04T06:42:35.394Z,1010.70
2018-12-04T06:43:35.386Z,1010.72
2018-12-04T06:44:35.383Z,1010.75
2018-12-04T06:45:35.378Z,1010.84
2018-12-04T06:46:35.373Z,1010.88
2018-12-04T06:47:35.378Z,1010.88
2018-12-04T06:48:35.369Z,1010.87
2018-12-04T06:49:35.382Z,1010.88
2018-12-04T06:50:35.565Z,1010.91
2018-12-04T06:51:35.356Z,1010.89
2018-12-04T06:52:35.588Z,1010.94
2018-12-04T06:53:35.568Z,1010.92
2018-12-04T06:54:35.353Z,1010.95
2018-12-04T06:55:35.344Z,1010.98
2018-12-04T06:56:35.545Z,1011.02
2018-12-04T06:57:35.338Z,1011.03
2018-12-04T06:58:35.537Z,1011.05
2018-12-04T06:59:35.330Z,1011.10
2018-12-04T07:00:35.357Z,1011.09
2018-12-04T07:01:35.326Z,1011.09
2018-12-04T07:02:35.334Z,1011.13
2018-12-04T07:03:35.326Z,1011.16
2018-12-04T07:04:35.329Z,1011.20
2018-12-04T07:05:35.324Z,1011.21
2018-12-04T07:06:35.331Z,1011.26
2018-12-04T07:07:35.306Z,1011.28
2018-12-04T07:08:35.311Z,1011.30
2018-12-04T07:09:35.296Z,1011.33
2018-12-04T07:10:35.304Z,1011.34
2018-12-04T07:11:35.292Z,1011.36
2018-12-04T07:12:35.288Z,1011.40
2018-12-04T07:13:35.287Z,1011.39
2018-12-04T07:14:35.280Z,1011.44
2018-12-04T07:15:35.308Z,1011.46
2018-12-04T07:16:35.308Z,1011.52
2018-12-04T07:17:35.281Z,1011.54
2018-12-04T07:18:35.267Z,1011.58
2018-12-04T07:19:35.279Z,1011.61
2018-12-04T07:20:35.323Z,1011.68
2018-12-04T07:21:35.256Z,1011.66
2018-12-04T07:22:35.252Z,1011.72
2018-12-04T07:23:35.315Z,1011.71
2018-12-04T07:24:35.259Z,1011.76
2018-12-04T07:25:35.253Z,1011.75
2018-12-04T07:26:35.242Z,1011.78
2018-12-04T07:27:35.236Z,1011.80
2018-12-04T07:28:35.235Z,1011.81
2018-12-04T07:29:35.227Z,1011.83
2018-12-04T07:30:35.227Z,1011.86
2018-12-04T07:31:35.224Z,1011.87
2018-12-04T07:32:38.796Z,1011.87
2018-12-04T07:33:35.217Z,1011.92
2018-12-04T07:34:35.416Z,1011.93
2018-12-04T07:35:35.222Z,1011.91
2018-12-04T07:36:35.224Z,1011.93
2018-12-04T07:37:35.426Z,1011.95
2018-12-04T07:38:35.225Z,1011.99
2018-12-04T07:39:35.198Z,1012.01
2018-12-04T07:40:35.192Z,1012.03
2018-12-04T07:41:35.203Z,1012.06
2018-12-04T07:42:35.389Z,1012.06
2018-12-04T07:43:35.185Z,1012.06
2018-12-04T07:44:35.182Z,1012.14
2018-12-04T07:45:35.178Z,1012.13
2018-12-04T07:46:35.174Z,1012.16
2018-12-04T07:47:35.186Z,1012.24
2018-12-04T07:48:35.180Z,1012.20
2018-12-04T07:49:35.368Z,1012.23
2018-12-04T07:50:35.161Z,1012.27
2018-12-04T07:51:35.167Z,1012.29
2018-12-04T07:52:35.158Z,1012.36
2018-12-04T07:53:35.165Z,1012.45
2018-12-04T07:54:35.159Z,1012.48
2018-12-04T07:55:35.155Z,1012.48
2018-12-04T07:56:35.158Z,1012.54
2018-12-04T07:57:35.346Z,1012.57
2018-12-04T07:58:35.136Z,1012.57
2018-12-04T07:59:35.174Z,1012.58
2018-12-04T08:00:35.128Z,1012.64
2018-12-04T08:01:35.129Z,1012.62
2018-12-04T08:02:35.137Z,1012.64
2018-12-04T08:03:35.121Z,1012.66
2018-12-04T08:04:35.119Z,1012.65
2018-12-04T08:05:35.115Z,1012.66
2018-12-04T08:06:35.331Z,1012.72
2018-12-04T08:07:35.122Z,1012.70
2018-12-04T08:08:35.103Z,1012.73
2018-12-04T08:09:35.303Z,1012.76
2018-12-04T08:10:35.097Z,1012.78
2018-12-04T08:11:35.097Z,1012.81
2018-12-04T08:12:35.104Z,1012.85
2018-12-04T08:13:35.305Z,1012.87
2018-12-04T08:14:35.111Z,1012.87
2018-12-04T08:15:35.084Z,1012.90
2018-12-04T08:16:35.076Z,1012.95
2018-12-04T08:17:35.072Z,1012.96
2018-12-04T08:18:35.082Z,1012.98
2018-12-04T08:19:35.269Z,1012.99
2018-12-04T08:20:35.065Z,1012.99
2018-12-04T08:21:35.271Z,1013.02
2018-12-04T08:22:35.057Z,1013.03
2018-12-04T08:23:35.257Z,1013.09
2018-12-04T08:24:35.270Z,1013.11
2018-12-04T08:25:35.063Z,1013.15
2018-12-04T08:26:35.072Z,1013.17
2018-12-04T08:27:35.252Z,1013.15
2018-12-04T08:28:35.239Z,1013.14
2018-12-04T08:29:35.032Z,1013.17
2018-12-04T08:30:35.028Z,1013.21
2018-12-04T08:31:35.240Z,1013.23
2018-12-04T08:32:35.038Z,1013.25
2018-12-04T08:33:35.019Z,1013.26
2018-12-04T08:34:35.016Z,1013.31
2018-12-04T08:35:35.023Z,1013.32
2018-12-04T08:36:35.009Z,1013.37
2018-12-04T08:37:35.005Z,1013.36
2018-12-04T08:38:35.005Z,1013.35
2018-12-04T08:39:34.999Z,1013.38
2018-12-04T08:40:35.226Z,1013.36
2018-12-04T08:41:34.992Z,1013.41
2018-12-04T08:42:35.207Z,1013.42
2018-12-04T08:43:34.998Z,1013.41
2018-12-04T08:44:34.986Z,1013.48
2018-12-04T08:45:34.989Z,1013.45
2018-12-04T08:46:34.976Z,1013.47
2018-12-04T08:47:34.974Z,1013.47
2018-12-04T08:48:34.986Z,1013.51
2018-12-04T08:49:34.966Z,1013.55
2018-12-04T08:50:35.166Z,1013.56
2018-12-04T08:51:34.972Z,1013.63
2018-12-04T08:52:34.958Z,1013.65
2018-12-04T08:53:34.952Z,1013.63
2018-12-04T08:54:34.963Z,1013.65
2018-12-04T08:55:34.948Z,1013.69
2018-12-04T08:56:34.942Z,1013.69
2018-12-04T08:57:34.937Z,1013.74
2018-12-04T08:58:34.945Z,1013.78
2018-12-04T08:59:34.944Z,1013.84
2018-12-04T09:00:34.951Z,1013.87
2018-12-04T09:01:34.923Z,1013.87
2018-12-04T09:02:34.922Z,1013.89
2018-12-04T09:03:34.931Z,1013.93
2018-12-04T09:04:34.915Z,1013.92
2018-12-04T09:05:34.928Z,1013.93
2018-12-04T09:06:35.109Z,1013.96
2018-12-04T09:07:34.918Z,1014.01
2018-12-04T09:08:34.910Z,1014.02
2018-12-04T09:09:34.897Z,1014.07
2018-12-04T09:10:34.904Z,1014.09
2018-12-04T09:11:34.902Z,1014.10
2018-12-04T09:12:34.885Z,1014.12
2018-12-04T09:13:34.908Z,1014.15
2018-12-04T09:14:38.170Z,1014.14
2018-12-04T09:15:34.889Z,1014.22
2018-12-04T09:16:34.873Z,1014.22
2018-12-04T09:17:34.885Z,1014.25
2018-12-04T09:18:34.873Z,1014.22
2018-12-04T09:19:34.876Z,1014.24
2018-12-04T09:20:35.074Z,1014.29
2018-12-04T09:21:35.101Z,1014.34
2018-12-04T09:22:35.072Z,1014.36
2018-12-04T09:23:34.881Z,1014.37
2018-12-04T09:24:34.905Z,1014.40
2018-12-04T09:25:34.846Z,1014.42
2018-12-04T09:26:34.851Z,1014.44
2018-12-04T09:27:34.834Z,1014.41
2018-12-04T09:28:34.853Z,1014.45
2018-12-04T09:29:34.849Z,1014.52
2018-12-04T09:30:34.834Z,1014.56
2018-12-04T09:31:34.818Z,1014.61
2018-12-04T09:32:34.814Z,1014.58
2018-12-04T09:33:34.824Z,1014.61
2018-12-04T09:34:35.024Z,1014.63
2018-12-04T09:35:35.005Z,1014.65
2018-12-04T09:36:34.809Z,1014.66
2018-12-04T09:37:35.011Z,1014.69
2018-12-04T09:38:34.793Z,1014.72
2018-12-04T09:39:34.805Z,1014.74
2018-12-04T09:40:34.785Z,1014.78
2018-12-04T09:41:34.993Z,1014.79
2018-12-04T09:42:34.788Z,1014.80
2018-12-04T09:43:34.988Z,1014.82
2018-12-04T09:44:34.795Z,1014.84
2018-12-04T09:45:34.781Z,1014.84
2018-12-04T09:46:34.775Z,1014.79
2018-12-04T09:47:34.766Z,1014.83
2018-12-04T09:48:34.756Z,1014.92
2018-12-04T09:49:34.752Z,1014.87
2018-12-04T09:50:34.750Z,1014.89
2018-12-04T09:51:34.746Z,1014.90
2018-12-04T09:52:34.742Z,1014.86
2018-12-04T09:53:34.737Z,1014.94
2018-12-04T09:54:34.743Z,1014.93
2018-12-04T09:55:34.732Z,1015.00
2018-12-04T09:56:34.741Z,1014.99
2018-12-04T09:57:34.723Z,1015.02
2018-12-04T09:58:34.718Z,1015.04
2018-12-04T09:59:39.523Z,1015.10
2018-12-04T10:00:34.710Z,1015.04
2018-12-04T10:01:34.710Z,1015.10
2018-12-04T10:02:34.704Z,1015.12
2018-12-04T10:03:34.905Z,1015.10
2018-12-04T10:04:34.696Z,1015.16
2018-12-04T10:05:34.900Z,1015.18
2018-12-04T10:06:34.702Z,1015.19
2018-12-04T10:07:34.689Z,1015.22
2018-12-04T10:08:34.690Z,1015.25
2018-12-04T10:09:34.697Z,1015.26
2018-12-04T10:10:34.688Z,1015.32
2018-12-04T10:11:34.674Z,1015.32
2018-12-04T10:12:34.671Z,1015.36
2018-12-04T10:13:34.673Z,1015.35
2018-12-04T10:14:34.879Z,1015.30
2018-12-04T10:15:34.681Z,1015.30
2018-12-04T10:16:34.651Z,1015.28
2018-12-04T10:17:34.864Z,1015.27
2018-12-04T10:18:34.739Z,1015.35
2018-12-04T10:19:34.857Z,1015.35
2018-12-04T10:20:34.641Z,1015.31
2018-12-04T10:21:34.838Z,1015.33
2018-12-04T10:22:34.644Z,1015.34
2018-12-04T10:23:34.642Z,1015.37
2018-12-04T10:24:34.827Z,1015.36
2018-12-04T10:25:34.619Z,1015.41
2018-12-04T10:26:34.637Z,1015.42
2018-12-04T10:27:34.816Z,1015.43
2018-12-04T10:28:34.813Z,1015.39
2018-12-04T10:29:34.822Z,1015.42
2018-12-04T10:30:34.604Z,1015.40
2018-12-04T10:31:34.824Z,1015.43
2018-12-04T10:32:34.594Z,1015.43
2018-12-04T10:33:34.599Z,1015.46
2018-12-04T10:34:34.803Z,1015.41
2018-12-04T10:35:34.796Z,1015.41
2018-12-04T10:36:34.579Z,1015.38
2018-12-04T10:37:34.778Z,1015.39
2018-12-04T10:38:34.572Z,1015.41
2018-12-04T10:39:34.580Z,1015.37
2018-12-04T10:40:34.565Z,1015.37
2018-12-04T10:41:34.777Z,1015.41
2018-12-04T10:42:34.582Z,1015.48
2018-12-04T10:43:34.565Z,1015.54
2018-12-04T10:44:34.576Z,1015.51
2018-12-04T10:45:34.545Z,1015.57
2018-12-04T10:46:34.556Z,1015.57
2018-12-04T10:47:34.539Z,1015.61
2018-12-04T10:48:34.737Z,1015.65
2018-12-04T10:49:34.747Z,1015.64
2018-12-04T10:50:34.538Z,1015.65
2018-12-04T10:51:34.526Z,1015.61
2018-12-04T10:52:34.743Z,1015.63
2018-12-04T10:53:34.529Z,1015.62
2018-12-04T10:54:34.531Z,1015.62
2018-12-04T10:55:34.511Z,1015.64
2018-12-04T10:56:34.505Z,1015.65
2018-12-04T10:57:34.718Z,1015.63
2018-12-04T10:58:34.523Z,1015.65
2018-12-04T10:59:34.510Z,1015.72
2018-12-04T11:00:34.519Z,1015.71
2018-12-04T11:01:34.488Z,1015.75
2018-12-04T11:02:34.717Z,1015.75
2018-12-04T11:03:34.503Z,1015.70
2018-12-04T11:04:34.694Z,1015.77
2018-12-04T11:05:34.679Z,1015.79
2018-12-04T11:06:34.673Z,1015.78
2018-12-04T11:07:34.469Z,1015.76
2018-12-04T11:08:34.470Z,1015.79
2018-12-04T11:09:34.460Z,1015.81
2018-12-04T11:10:34.514Z,1015.85
2018-12-04T11:11:35.057Z,1015.87
2018-12-04T11:12:34.662Z,1015.85
2018-12-04T11:13:34.447Z,1015.86
2018-12-04T11:14:34.447Z,1015.85
2018-12-04T11:15:34.438Z,1015.87
2018-12-04T11:16:34.486Z,1015.87
2018-12-04T11:17:34.443Z,1015.87
2018-12-04T11:18:34.428Z,1015.87
2018-12-04T11:19:34.626Z,1015.92
2018-12-04T11:20:34.424Z,1015.92
2018-12-04T11:21:34.423Z,1015.94
2018-12-04T11:22:34.416Z,1015.94
2018-12-04T11:23:34.414Z,1015.99
2018-12-04T11:24:34.610Z,1016.02
2018-12-04T11:25:34.406Z,1016.01
2018-12-04T11:26:34.411Z,1016.03
2018-12-04T11:27:34.412Z,1016.03
2018-12-04T11:28:34.404Z,1016.01
2018-12-04T11:29:34.406Z,1016.03
2018-12-04T11:30:34.393Z,1016.03
2018-12-04T11:31:34.383Z,1016.08
2018-12-04T11:32:34.397Z,1016.07
2018-12-04T11:33:34.382Z,1016.11
2018-12-04T11:34:34.590Z,1016.13
2018-12-04T11:35:34.370Z,1016.16
2018-12-04T11:36:34.384Z,1016.21
2018-12-04T11:37:34.363Z,1016.23
2018-12-04T11:38:34.361Z,1016.20
2018-12-04T11:39:34.362Z,1016.23
2018-12-04T11:40:34.365Z,1016.22
2018-12-04T11:41:34.351Z,1016.25
2018-12-04T11:42:34.347Z,1016.25
2018-12-04T11:43:34.355Z,1016.25
2018-12-04T11:44:34.346Z,1016.24
2018-12-04T11:45:34.338Z,1016.23
2018-12-04T11:46:34.332Z,1016.23
2018-12-04T11:47:34.335Z,1016.23
2018-12-04T11:48:34.538Z,1016.23
2018-12-04T11:49:34.335Z,1016.22
2018-12-04T11:50:34.331Z,1016.23
2018-12-04T11:51:34.320Z,1016.24
2018-12-04T11:52:34.325Z,1016.23
2018-12-04T11:53:34.322Z,1016.25
2018-12-04T11:54:34.520Z,1016.24
2018-12-04T11:55:34.308Z,1016.28
2018-12-04T11:56:34.503Z,1016.32
2018-12-04T11:57:34.297Z,1016.36
2018-12-04T11:58:34.304Z,1016.37
2018-12-04T11:59:34.513Z,1016.34
2018-12-04T12:00:34.502Z,1016.35
2018-12-04T12:01:34.489Z,1016.37
2018-12-04T12:02:34.496Z,1016.32
2018-12-04T12:03:34.279Z,1016.32
2018-12-04T12:04:34.289Z,1016.34
2018-12-04T12:05:34.281Z,1016.29